Time;durP1;ratioP1;P1;durP2;ratioP2;P2;SDS_P1;SDS_P2;PMS_P1;PMS_P2;Temp;Humidity;BMP_temperature;BMP_pressure;BME280_temperature;BME280_humidity;BME280_pressure;Samples;Min_cycle;Max_cycle;Signal;HPM_P1;HPM_P2
2023/06/03 00:02:03;;;;;;;12.27;11.25;;;;;;;;;;6305537;22;20062;-83
2023/06/03 00:04:29;;;;;;;10.85;10.05;;;;;;;;;;6277511;22;20057;-82
2023/06/03 00:06:58;;;;;;;10.52;9.63;;;;;;;;;;6277662;22;20015;-82
2023/06/03 00:09:25;;;;;;;14.20;13.18;;;;;;;;;;6277514;22;20011;-82
2023/06/03 00:11:51;;;;;;;11.95;11.00;;;;;;;;;;6277422;22;20426;-82
2023/06/03 00:14:17;;;;;;;13.10;12.02;;;;;;;;;;6276953;22;20030;-82
2023/06/03 00:16:47;;;;;;;11.82;10.85;;;;;;;;;;6252182;22;20004;-82
2023/06/03 00:19:14;;;;;;;9.43;8.63;;;;;;;;;;6277246;22;20043;-82
2023/06/03 00:21:49;;;;;;;8.38;7.68;;;;;;;;;;6305232;22;20391;-82
2023/06/03 00:24:23;;;;;;;10.38;9.38;;;;;;;;;;6252069;22;20384;-82
2023/06/03 00:26:50;;;;;;;8.13;7.43;;;;;;;;;;6277947;22;20018;-82
2023/06/03 00:29:16;;;;;;;8.77;7.95;;;;;;;;;;6276933;22;20019;-82
2023/06/03 00:31:42;;;;;;;7.38;6.78;;;;;;;;;;6305126;22;20075;-82
2023/06/03 00:34:08;;;;;;;7.38;6.65;;;;;;;;;;6277197;22;20363;-82
2023/06/03 00:36:34;;;;;;;6.68;5.97;;;;;;;;;;6277422;22;20065;-82
2023/06/03 00:39:00;;;;;;;7.40;5.38;;;;;;;;;;6277401;22;20030;-82
2023/06/03 00:41:26;;;;;;;8.38;6.13;;;;;;;;;;6277704;22;20080;-82
2023/06/03 00:43:52;;;;;;;7.13;6.38;;;;;;;;;;6251065;22;20098;-82
2023/06/03 00:46:19;;;;;;;7.53;5.28;;;;;;;;;;6251825;22;20389;-82
2023/06/03 00:48:46;;;;;;;7.88;5.35;;;;;;;;;;6304592;22;20015;-82
2023/06/03 00:51:12;;;;;;;8.77;5.43;;;;;;;;;;6304988;22;20384;-82
2023/06/03 00:53:38;;;;;;;5.93;4.47;;;;;;;;;;6276570;22;20358;-82
2023/06/03 00:56:04;;;;;;;7.13;4.40;;;;;;;;;;6276982;22;20025;-82
2023/06/03 00:58:32;;;;;;;6.47;4.43;;;;;;;;;;6251475;22;20011;-82
2023/06/03 01:00:58;;;;;;;6.25;4.72;;;;;;;;;;6277101;22;20072;-82
2023/06/03 01:03:24;;;;;;;7.28;4.25;;;;;;;;;;6277465;22;20430;-82
2023/06/03 01:06:02;;;;;;;6.30;5.50;;;;;;;;;;6251339;22;20501;-82
2023/06/03 01:08:33;;;;;;;6.22;4.32;;;;;;;;;;6251401;22;20011;-82
2023/06/03 01:11:05;;;;;;;6.18;4.18;;;;;;;;;;6276762;22;20049;-82
2023/06/03 01:14:10;;;;;;;6.82;3.50;;;;;;;;;;6276703;22;20103;-82
2023/06/03 01:16:37;;;;;;;7.07;4.53;;;;;;;;;;6149661;23;20476;-82
2023/06/03 01:19:08;;;;;;;5.90;4.63;;;;;;;;;;6100282;23;20334;-82
2023/06/03 01:21:38;;;;;;;7.22;4.55;;;;;;;;;;6125133;23;20010;-82
2023/06/03 01:24:04;;;;;;;11.27;4.20;;;;;;;;;;6124913;23;20345;-82
2023/06/03 01:26:31;;;;;;;7.63;4.13;;;;;;;;;;6124450;23;20089;-82
2023/06/03 01:28:57;;;;;;;8.15;5.03;;;;;;;;;;6124824;23;20014;-82
2023/06/03 01:31:23;;;;;;;6.13;4.13;;;;;;;;;;6100129;23;20148;-82
2023/06/03 01:33:49;;;;;;;5.80;4.03;;;;;;;;;;6124873;23;20013;-82
2023/06/03 01:36:15;;;;;;;10.15;4.63;;;;;;;;;;6100528;23;20049;-82
2023/06/03 01:38:42;;;;;;;7.80;3.92;;;;;;;;;;6100434;23;20013;-82
2023/06/03 01:41:08;;;;;;;8.23;4.25;;;;;;;;;;6099928;23;20044;-82
2023/06/03 01:43:34;;;;;;;7.57;6.00;;;;;;;;;;6100347;23;20037;-82
2023/06/03 01:46:00;;;;;;;8.05;4.03;;;;;;;;;;6100989;23;20445;-82
2023/06/03 01:48:26;;;;;;;6.72;3.92;;;;;;;;;;6270631;22;20018;-82
2023/06/03 01:50:52;;;;;;;10.20;9.20;;;;;;;;;;6277234;22;20095;-82
2023/06/03 01:53:20;;;;;;;9.15;4.35;;;;;;;;;;6250766;22;20346;-82
2023/06/03 01:55:46;;;;;;;6.38;3.60;;;;;;;;;;6276216;22;20062;-83
2023/06/03 01:58:12;;;;;;;8.88;8.15;;;;;;;;;;6276569;22;20015;-82
2023/06/03 02:00:38;;;;;;;13.52;12.43;;;;;;;;;;6251292;22;20077;-82
2023/06/03 02:03:04;;;;;;;7.32;4.30;;;;;;;;;;6276887;22;20015;-82
2023/06/03 02:05:30;;;;;;;10.25;8.25;;;;;;;;;;6277084;22;20015;-82
2023/06/03 02:07:56;;;;;;;7.40;6.53;;;;;;;;;;6251350;22;20018;-82
2023/06/03 02:10:22;;;;;;;8.63;4.38;;;;;;;;;;6250410;22;20018;-82
2023/06/03 02:12:48;;;;;;;8.02;4.53;;;;;;;;;;6304353;22;20099;-82
2023/06/03 02:15:14;;;;;;;6.10;4.60;;;;;;;;;;6276590;22;20090;-83
2023/06/03 02:17:40;;;;;;;11.93;10.98;;;;;;;;;;6304127;22;20011;-82
2023/06/03 02:20:06;;;;;;;9.38;4.22;;;;;;;;;;6276518;22;20026;-82
2023/06/03 02:22:32;;;;;;;6.95;3.95;;;;;;;;;;6276612;22;20023;-82
2023/06/03 02:24:58;;;;;;;7.43;4.05;;;;;;;;;;6275835;22;20015;-82
2023/06/03 02:27:25;;;;;;;14.70;13.70;;;;;;;;;;6304672;22;20018;-83
2023/06/03 02:29:52;;;;;;;6.55;4.20;;;;;;;;;;6276797;22;20011;-83
2023/06/03 02:32:21;;;;;;;9.02;8.25;;;;;;;;;;6251055;22;20011;-83
2023/06/03 02:34:51;;;;;;;12.25;11.20;;;;;;;;;;6276518;22;20066;-83
2023/06/03 02:37:17;;;;;;;5.22;3.30;;;;;;;;;;6250786;22;20041;-82
2023/06/03 02:39:44;;;;;;;11.15;10.18;;;;;;;;;;6303683;22;20015;-82
2023/06/03 02:42:10;;;;;;;8.25;4.40;;;;;;;;;;6304435;22;20034;-82
2023/06/03 02:44:36;;;;;;;15.23;14.23;;;;;;;;;;6278615;22;20086;-82
2023/06/03 02:47:02;;;;;;;4.47;4.07;;;;;;;;;;6252646;22;20018;-82
2023/06/03 02:49:29;;;;;;;6.25;5.65;;;;;;;;;;6252524;22;20053;-82
2023/06/03 02:51:55;;;;;;;5.57;5.03;;;;;;;;;;6277946;22;20548;-82
2023/06/03 02:54:21;;;;;;;22.35;20.80;;;;;;;;;;6304606;22;20015;-82
2023/06/03 02:56:47;;;;;;;16.23;15.00;;;;;;;;;;6305856;22;20053;-82
2023/06/03 02:59:13;;;;;;;19.63;18.30;;;;;;;;;;6252433;22;20061;-82
2023/06/03 03:01:39;;;;;;;18.02;16.77;;;;;;;;;;6277845;22;20015;-82
2023/06/03 03:04:05;;;;;;;7.28;4.32;;;;;;;;;;6305790;22;20041;-82
2023/06/03 03:06:31;;;;;;;16.63;15.48;;;;;;;;;;6277996;22;20007;-82
2023/06/03 03:08:57;;;;;;;17.98;16.73;;;;;;;;;;6277685;22;20149;-82
2023/06/03 03:11:24;;;;;;;12.40;11.48;;;;;;;;;;6305607;22;20458;-82
2023/06/03 03:13:50;;;;;;;12.98;12.07;;;;;;;;;;6277590;22;20086;-82
2023/06/03 03:16:17;;;;;;;5.30;3.95;;;;;;;;;;6278051;22;20018;-82
2023/06/03 03:18:43;;;;;;;11.77;10.77;;;;;;;;;;6277661;22;20022;-82
2023/06/03 03:21:09;;;;;;;14.43;13.05;;;;;;;;;;6251338;22;20035;-82
2023/06/03 03:23:35;;;;;;;14.98;13.75;;;;;;;;;;6252226;22;20048;-82
2023/06/03 03:26:01;;;;;;;6.20;4.78;;;;;;;;;;6252248;22;20015;-82
2023/06/03 03:28:28;;;;;;;7.20;6.40;;;;;;;;;;6277933;22;20011;-82
2023/06/03 03:30:55;;;;;;;15.38;14.23;;;;;;;;;;6305455;22;20069;-82
2023/06/03 03:33:21;;;;;;;10.27;9.52;;;;;;;;;;6277621;22;20468;-82
2023/06/03 03:35:48;;;;;;;17.45;16.10;;;;;;;;;;6277333;22;20042;-82
2023/06/03 03:38:15;;;;;;;7.70;6.75;;;;;;;;;;6278060;22;20035;-82
2023/06/03 03:40:41;;;;;;;15.23;14.20;;;;;;;;;;6252092;22;20014;-82
2023/06/03 03:43:14;;;;;;;7.07;5.03;;;;;;;;;;6277405;22;20094;-82
2023/06/03 03:45:40;;;;;;;;;;;;;;;;;;6278585;22;20022;-82
2023/06/03 03:48:07;;;;;;;15.55;14.27;;;;;;;;;;6305410;22;19910;-82
2023/06/03 03:50:40;;;;;;;13.27;11.73;;;;;;;;;;6304548;22;20019;-82
2023/06/03 03:53:08;;;;;;;11.18;10.23;;;;;;;;;;6304405;22;20341;-82
2023/06/03 03:55:39;;;;;;;9.77;7.32;;;;;;;;;;6277784;22;20015;-82
2023/06/03 03:58:08;;;;;;;10.82;9.98;;;;;;;;;;6305178;22;20007;-82
2023/06/03 04:00:34;;;;;;;12.57;11.57;;;;;;;;;;6277376;22;20153;-82
2023/06/03 04:03:00;;;;;;;10.27;9.38;;;;;;;;;;6277898;22;20050;-81
2023/06/03 04:05:26;;;;;;;10.63;9.65;;;;;;;;;;6276782;22;20015;-82
2023/06/03 04:07:53;;;;;;;10.63;9.50;;;;;;;;;;6277591;22;20634;-82
2023/06/03 04:10:22;;;;;;;8.57;7.47;;;;;;;;;;6277324;22;20015;-82
2023/06/03 04:12:48;;;;;;;9.55;8.75;;;;;;;;;;6251500;22;20011;-82
2023/06/03 04:15:16;;;;;;;11.57;10.68;;;;;;;;;;6251677;22;20019;-82
2023/06/03 04:17:44;;;;;;;9.95;9.00;;;;;;;;;;6251809;22;20019;-82
2023/06/03 04:20:38;;;;;;;11.75;10.85;;;;;;;;;;6250863;22;20422;-82
2023/06/03 04:23:05;;;;;;;12.73;11.63;;;;;;;;;;6271739;22;20015;-82
2023/06/03 04:25:33;;;;;;;11.20;10.20;;;;;;;;;;6251422;22;20015;-82
2023/06/03 04:27:59;;;;;;;11.73;10.40;;;;;;;;;;6251405;22;20045;-82
2023/06/03 04:30:25;;;;;;;11.07;10.15;;;;;;;;;;6251500;22;20026;-82
2023/06/03 04:32:51;;;;;;;9.75;8.95;;;;;;;;;;6251450;22;20011;-81
2023/06/03 04:35:17;;;;;;;12.20;11.10;;;;;;;;;;6250847;22;20353;-83
2023/06/03 04:37:43;;;;;;;10.52;9.65;;;;;;;;;;6251404;22;20091;-81
2023/06/03 04:40:09;;;;;;;13.38;12.13;;;;;;;;;;6304116;22;20327;-81
2023/06/03 04:42:35;;;;;;;13.20;12.30;;;;;;;;;;6276766;22;20452;-81
2023/06/03 04:45:01;;;;;;;13.25;12.35;;;;;;;;;;6251019;22;20098;-84
2023/06/03 04:47:28;;;;;;;15.57;14.18;;;;;;;;;;6251093;22;20047;-82
2023/06/03 04:49:55;;;;;;;13.00;12.02;;;;;;;;;;6276328;22;20017;-82
2023/06/03 04:52:22;;;;;;;7.25;6.60;;;;;;;;;;6304366;22;20011;-82
2023/06/03 04:54:48;;;;;;;9.55;8.63;;;;;;;;;;6251056;22;20466;-83
2023/06/03 04:57:14;;;;;;;13.07;11.88;;;;;;;;;;6251376;22;20046;-83
2023/06/03 04:59:43;;;;;;;9.25;6.97;;;;;;;;;;6276403;22;20039;-82
2023/06/03 05:02:13;;;;;;;9.85;8.77;;;;;;;;;;6251343;22;20034;-82
2023/06/03 05:04:41;;;;;;;10.75;9.90;;;;;;;;;;6250573;22;20019;-82
2023/06/03 05:07:07;;;;;;;8.88;7.85;;;;;;;;;;6251130;22;20017;-82
2023/06/03 05:09:33;;;;;;;13.52;10.63;;;;;;;;;;6304455;22;20081;-82
2023/06/03 05:11:59;;;;;;;6.63;5.03;;;;;;;;;;6276895;22;20338;-82
2023/06/03 05:14:25;;;;;;;5.97;4.30;;;;;;;;;;6304527;22;20018;-83
2023/06/03 05:16:51;;;;;;;8.40;5.65;;;;;;;;;;6251354;22;20102;-83
2023/06/03 05:19:17;;;;;;;11.00;5.50;;;;;;;;;;6303866;22;20014;-82
2023/06/03 05:21:43;;;;;;;9.82;4.32;;;;;;;;;;6276652;22;20011;-82
2023/06/03 05:24:10;;;;;;;4.43;2.45;;;;;;;;;;6250916;22;20042;-82
2023/06/03 05:26:36;;;;;;;5.57;3.05;;;;;;;;;;6304360;22;20019;-82
2023/06/03 05:29:02;;;;;;;5.35;2.65;;;;;;;;;;6276608;22;20007;-82
2023/06/03 05:31:28;;;;;;;4.85;2.50;;;;;;;;;;6276794;22;20008;-84
2023/06/03 05:33:54;;;;;;;4.90;2.58;;;;;;;;;;6275695;22;20015;-84
2023/06/03 05:36:20;;;;;;;4.35;2.75;;;;;;;;;;6276640;22;20007;-83
2023/06/03 05:38:46;;;;;;;8.48;3.00;;;;;;;;;;6276609;22;20099;-82
2023/06/03 05:41:12;;;;;;;7.20;2.40;;;;;;;;;;6276983;22;20019;-83
2023/06/03 05:43:38;;;;;;;7.03;2.13;;;;;;;;;;6304440;22;20019;-83
2023/06/03 05:46:04;;;;;;;4.55;2.00;;;;;;;;;;6303770;22;20015;-83
2023/06/03 05:48:30;;;;;;;5.78;1.98;;;;;;;;;;6251131;22;20057;-83
2023/06/03 05:50:56;;;;;;;7.78;2.28;;;;;;;;;;6276351;22;20011;-83
2023/06/03 05:53:24;;;;;;;3.00;2.20;;;;;;;;;;6250823;22;20015;-86
2023/06/03 05:55:50;;;;;;;4.35;3.20;;;;;;;;;;6251075;22;20019;-83
2023/06/03 05:58:19;;;;;;;6.20;4.03;;;;;;;;;;6250957;22;20426;-85
2023/06/03 06:00:45;;;;;;;4.80;3.33;;;;;;;;;;6250381;22;20046;-84
2023/06/03 06:03:13;;;;;;;7.53;6.63;;;;;;;;;;6276509;22;20016;-85
2023/06/03 06:05:39;;;;;;;4.57;3.38;;;;;;;;;;6304048;22;20026;-83
2023/06/03 06:08:05;;;;;;;8.65;3.95;;;;;;;;;;6304230;22;20015;-84
2023/06/03 06:10:31;;;;;;;5.53;2.97;;;;;;;;;;6276412;22;20015;-84
2023/06/03 06:12:57;;;;;;;6.35;2.63;;;;;;;;;;6276832;22;20046;-84
2023/06/03 06:15:23;;;;;;;5.18;2.80;;;;;;;;;;6276287;22;20011;-84
2023/06/03 06:17:49;;;;;;;5.53;3.72;;;;;;;;;;6278150;22;20022;-84
2023/06/03 06:20:15;;;;;;;7.90;3.03;;;;;;;;;;6278821;22;20064;-84
2023/06/03 06:22:41;;;;;;;6.35;4.60;;;;;;;;;;6305996;22;20011;-83
2023/06/03 06:25:08;;;;;;;4.78;3.70;;;;;;;;;;6305664;22;20082;-83
2023/06/03 06:27:34;;;;;;;8.15;4.25;;;;;;;;;;6278184;22;20011;-84
2023/06/03 06:30:01;;;;;;;6.47;5.88;;;;;;;;;;6277555;22;20442;-83
2023/06/03 06:32:27;;;;;;;8.85;7.70;;;;;;;;;;6278240;22;20058;-87
2023/06/03 06:34:54;;;;;;;9.57;8.77;;;;;;;;;;6278614;22;20398;-85
2023/06/03 06:37:21;;;;;;;13.25;12.38;;;;;;;;;;6277952;22;20410;-86
2023/06/03 06:39:48;;;;;;;25.92;24.33;;;;;;;;;;6252314;22;20018;-83
2023/06/03 06:42:17;;;;;;;38.65;36.50;;;;;;;;;;6277703;22;20094;-84
2023/06/03 06:44:48;;;;;;;61.88;58.50;;;;;;;;;;6277372;22;20043;-84
2023/06/03 06:47:21;;;;;;;92.68;87.80;;;;;;;;;;6277975;22;20018;-84
2023/06/03 06:49:47;;;;;;;109.82;103.85;;;;;;;;;;6252484;22;20239;-84
2023/06/03 06:52:14;;;;;;;171.02;161.90;;;;;;;;;;6277942;22;20549;-84
2023/06/03 06:54:41;;;;;;;188.48;178.23;;;;;;;;;;6277924;22;20030;-84
2023/06/03 06:57:07;;;;;;;185.50;175.32;;;;;;;;;;6277777;22;20015;-84
2023/06/03 06:59:33;;;;;;;213.98;202.25;;;;;;;;;;6251147;22;20026;-84
2023/06/03 07:01:59;;;;;;;171.55;162.20;;;;;;;;;;6277900;22;20011;-84
2023/06/03 07:04:25;;;;;;;241.63;227.73;;;;;;;;;;6252177;22;20038;-84
2023/06/03 07:06:51;;;;;;;275.25;259.63;;;;;;;;;;6278373;22;20046;-84
2023/06/03 07:09:18;;;;;;;230.90;217.75;;;;;;;;;;6251929;22;20022;-85
2023/06/03 07:11:44;;;;;;;285.10;268.90;;;;;;;;;;6278301;22;20007;-85
2023/06/03 07:14:10;;;;;;;243.55;229.80;;;;;;;;;;6277168;22;20086;-84
2023/06/03 07:16:36;;;;;;;230.02;217.35;;;;;;;;;;6252136;22;20510;-85
2023/06/03 07:19:04;;;;;;;384.77;361.30;;;;;;;;;;6252613;22;20015;-84
2023/06/03 07:21:30;;;;;;;403.23;378.58;;;;;;;;;;6278234;22;20038;-85
2023/06/03 07:24:00;;;;;;;420.55;393.75;;;;;;;;;;6277822;22;20019;-86
2023/06/03 07:26:33;;;;;;;514.28;479.83;;;;;;;;;;6277854;22;20012;-84
2023/06/03 07:28:59;;;;;;;484.27;451.92;;;;;;;;;;6277368;22;20080;-84
2023/06/03 07:31:27;;;;;;;453.95;424.88;;;;;;;;;;6305628;22;20417;-84
2023/06/03 07:33:56;;;;;;;429.77;402.58;;;;;;;;;;6306036;22;20015;-84
2023/06/03 07:36:24;;;;;;;530.30;494.27;;;;;;;;;;6305700;22;20011;-84
2023/06/03 07:39:06;;;;;;;521.35;486.60;;;;;;;;;;6305602;22;20014;-84
2023/06/03 07:41:36;;;;;;;622.88;577.72;;;;;;;;;;6252240;22;20030;-84
2023/06/03 07:44:07;;;;;;;665.55;617.30;;;;;;;;;;6277040;22;20059;-85
2023/06/03 07:46:38;;;;;;;716.78;663.35;;;;;;;;;;6278311;22;20015;-84
2023/06/03 07:49:04;;;;;;;729.35;674.97;;;;;;;;;;6278195;22;20073;-84
2023/06/03 07:51:30;;;;;;;681.28;631.45;;;;;;;;;;6252479;22;20015;-85
2023/06/03 07:53:56;;;;;;;731.47;676.75;;;;;;;;;;6277459;22;20338;-84
2023/06/03 07:56:22;;;;;;;692.67;641.72;;;;;;;;;;6305292;22;20101;-84
2023/06/03 07:58:48;;;;;;;705.50;653.28;;;;;;;;;;6251782;22;20366;-85
2023/06/03 08:01:16;;;;;;;717.58;664.20;;;;;;;;;;6252371;22;20050;-85
2023/06/03 08:03:43;;;;;;;782.67;722.83;;;;;;;;;;6251855;22;20011;-85
2023/06/03 08:06:09;;;;;;;655.88;608.00;;;;;;;;;;6252262;22;20019;-87
2023/06/03 08:08:35;;;;;;;673.38;624.75;;;;;;;;;;6251967;22;20022;-87
2023/06/03 08:11:01;;;;;;;639.72;593.00;;;;;;;;;;6251924;22;20022;-86
2023/06/03 08:13:27;;;;;;;689.17;638.35;;;;;;;;;;6251386;22;20040;-86
2023/06/03 08:15:54;;;;;;;636.13;590.22;;;;;;;;;;6277582;22;20017;-86
2023/06/03 08:18:38;;;;;;;618.65;574.47;;;;;;;;;;6305391;22;20336;-86
2023/06/03 08:21:04;;;;;;;504.83;471.08;;;;;;;;;;6278251;22;20017;-86
2023/06/03 08:23:32;;;;;;;266.15;251.38;;;;;;;;;;6277350;22;20093;-86
2023/06/03 08:26:00;;;;;;;198.70;187.80;;;;;;;;;;6251588;22;20408;-86
2023/06/03 08:28:26;;;;;;;194.18;183.23;;;;;;;;;;6251901;22;20011;-87
2023/06/03 08:30:52;;;;;;;92.07;86.75;;;;;;;;;;6305243;22;20035;-85
2023/06/03 08:33:18;;;;;;;22.45;21.08;;;;;;;;;;6252105;22;20571;-86
2023/06/03 08:35:44;;;;;;;10.07;9.45;;;;;;;;;;6251825;22;20018;-86
2023/06/03 08:38:10;;;;;;;14.45;13.25;;;;;;;;;;6278087;22;20010;-83
2023/06/03 08:40:40;;;;;;;12.85;11.98;;;;;;;;;;6251075;22;20013;-85
2023/06/03 08:43:06;;;;;;;10.45;9.70;;;;;;;;;;6304643;22;20446;-85
2023/06/03 08:45:41;;;;;;;10.02;8.68;;;;;;;;;;6277838;22;20064;-84
2023/06/03 08:48:17;;;;;;;4.80;4.35;;;;;;;;;;6251599;22;20015;-85
2023/06/03 08:50:47;;;;;;;9.93;9.13;;;;;;;;;;6277310;22;20011;-85
2023/06/03 08:53:13;;;;;;;11.63;10.88;;;;;;;;;;6276876;22;20476;-85
2023/06/03 08:55:39;;;;;;;18.42;17.17;;;;;;;;;;6276688;22;20023;-84
2023/06/03 08:58:13;;;;;;;39.22;37.08;;;;;;;;;;6277091;22;20081;-85
2023/06/03 09:00:39;;;;;;;35.45;33.50;;;;;;;;;;6277219;22;20015;-84
2023/06/03 09:03:06;;;;;;;74.07;70.00;;;;;;;;;;6277544;22;20019;-85
2023/06/03 09:05:35;;;;;;;85.88;81.43;;;;;;;;;;6277017;22;20011;-87
2023/06/03 09:08:02;;;;;;;94.70;89.65;;;;;;;;;;6304118;22;20488;-84
2023/06/03 09:10:28;;;;;;;91.43;86.43;;;;;;;;;;6277001;22;20019;-84
2023/06/03 09:12:55;;;;;;;57.78;54.67;;;;;;;;;;6251931;22;20015;-84
2023/06/03 09:15:22;;;;;;;106.43;100.60;;;;;;;;;;6277653;22;20133;-84
2023/06/03 09:17:48;;;;;;;82.03;77.43;;;;;;;;;;6277417;22;20430;-84
2023/06/03 09:20:14;;;;;;;124.18;117.53;;;;;;;;;;6304240;22;20087;-83
2023/06/03 09:22:44;;;;;;;61.13;57.33;;;;;;;;;;6305034;22;20011;-83
2023/06/03 09:25:10;;;;;;;31.35;29.58;;;;;;;;;;6276613;22;20023;-84
2023/06/03 09:27:36;;;;;;;57.45;54.38;;;;;;;;;;6304824;22;20011;-83
2023/06/03 09:30:03;;;;;;;29.50;27.30;;;;;;;;;;6277214;22;20047;-84
2023/06/03 09:32:30;;;;;;;40.70;38.25;;;;;;;;;;6276736;22;20047;-79
2023/06/03 09:34:57;;;;;;;22.13;20.67;;;;;;;;;;6304694;22;20007;-80
2023/06/03 09:37:23;;;;;;;35.90;33.85;;;;;;;;;;6251216;22;20085;-82
2023/06/03 09:39:49;;;;;;;34.80;32.55;;;;;;;;;;6276507;22;20011;-78
2023/06/03 09:42:15;;;;;;;19.13;17.80;;;;;;;;;;6251480;22;20008;-81
2023/06/03 09:44:55;;;;;;;18.88;17.75;;;;;;;;;;6276975;22;20011;-79
2023/06/03 09:47:21;;;;;;;26.38;24.70;;;;;;;;;;6277486;22;20410;-78
2023/06/03 09:50:02;;;;;;;28.67;26.67;;;;;;;;;;6277082;22;20110;-79
2023/06/03 09:52:32;;;;;;;30.58;28.50;;;;;;;;;;6277882;22;20632;-79
2023/06/03 09:55:02;;;;;;;22.95;21.52;;;;;;;;;;6277943;22;20314;-79
2023/06/03 09:57:28;;;;;;;24.48;23.05;;;;;;;;;;6279139;22;20038;-80
2023/06/03 10:00:04;;;;;;;24.15;22.60;;;;;;;;;;6278936;22;20114;-82
2023/06/03 10:02:30;;;;;;;15.25;14.25;;;;;;;;;;6279333;22;20030;-82
2023/06/03 10:04:57;;;;;;;16.77;15.25;;;;;;;;;;6279414;22;20283;-82
2023/06/03 10:07:23;;;;;;;15.20;13.95;;;;;;;;;;6278778;22;20011;-81
2023/06/03 10:09:49;;;;;;;12.65;11.55;;;;;;;;;;6278798;22;20019;-82
2023/06/03 10:12:16;;;;;;;9.88;9.20;;;;;;;;;;6306227;22;20043;-84
2023/06/03 10:14:45;;;;;;;4.95;4.50;;;;;;;;;;6278982;22;20011;-81
2023/06/03 10:17:12;;;;;;;6.85;5.95;;;;;;;;;;6253064;22;20444;-83
2023/06/03 10:19:39;;;;;;;4.75;4.10;;;;;;;;;;6279280;22;20060;-84
2023/06/03 10:22:06;;;;;;;10.93;4.20;;;;;;;;;;6278693;22;20007;-83
2023/06/03 10:24:39;;;;;;;5.53;4.05;;;;;;;;;;6253284;22;20111;-81
2023/06/03 10:27:05;;;;;;;8.82;4.28;;;;;;;;;;6306913;22;20031;-83
2023/06/03 10:29:32;;;;;;;6.00;4.15;;;;;;;;;;6278783;22;20012;-83
2023/06/03 10:32:02;;;;;;;2.78;2.22;;;;;;;;;;6278405;22;20499;-83
2023/06/03 10:34:29;;;;;;;6.55;2.65;;;;;;;;;;6252875;22;20011;-83
2023/06/03 10:36:57;;;;;;;3.97;3.22;;;;;;;;;;6277651;22;20134;-84
2023/06/03 10:39:25;;;;;;;3.83;2.90;;;;;;;;;;6252854;22;20018;-83
2023/06/03 10:41:53;;;;;;;4.47;2.72;;;;;;;;;;6278680;22;20087;-84
2023/06/03 10:44:19;;;;;;;3.90;2.35;;;;;;;;;;6278863;22;20015;-82
2023/06/03 10:47:00;;;;;;;5.82;3.63;;;;;;;;;;6279047;22;20011;-82
2023/06/03 10:49:29;;;;;;;5.90;4.20;;;;;;;;;;6306362;22;20188;-83
2023/06/03 10:52:20;;;;;;;7.30;3.30;;;;;;;;;;6276321;22;20015;-85
2023/06/03 10:55:13;;;;;;;3.65;2.30;;;;;;;;;;6251975;22;20094;-84
2023/06/03 10:57:43;;;;;;;8.15;2.58;;;;;;;;;;6271357;22;20008;-84
2023/06/03 11:00:10;;;;;;;4.70;3.20;;;;;;;;;;6278855;22;20011;-85
2023/06/03 11:02:55;;;;;;;3.40;2.38;;;;;;;;;;6305484;22;20018;-85
2023/06/03 11:05:22;;;;;;;4.47;2.10;;;;;;;;;;6278280;22;20010;-85
2023/06/03 11:07:48;;;;;;;4.45;2.85;;;;;;;;;;6306274;22;20011;-85
2023/06/03 11:10:39;;;;;;;4.50;3.47;;;;;;;;;;6306236;22;20068;-85
2023/06/03 11:13:06;;;;;;;3.33;2.83;;;;;;;;;;6252664;22;20011;-84
2023/06/03 11:15:58;;;;;;;5.15;4.28;;;;;;;;;;6253065;22;20110;-84
2023/06/03 11:18:24;;;;;;;4.53;3.20;;;;;;;;;;6305853;22;20035;-85
2023/06/03 11:20:50;;;;;;;5.82;2.70;;;;;;;;;;6278589;22;20091;-85
2023/06/03 11:23:35;;;;;;;9.02;2.08;;;;;;;;;;6252831;22;20039;-85
2023/06/03 11:26:20;;;;;;;3.50;2.22;;;;;;;;;;6253012;22;20011;-82
2023/06/03 11:28:46;;;;;;;5.53;3.33;;;;;;;;;;6278247;22;20102;-81
2023/06/03 11:31:17;;;;;;;5.07;3.28;;;;;;;;;;6278720;22;20470;-83
2023/06/03 11:34:03;;;;;;;4.18;2.35;;;;;;;;;;6305710;22;20045;-83
2023/06/03 11:36:46;;;;;;;4.40;3.22;;;;;;;;;;6278162;22;20015;-82
2023/06/03 11:39:12;;;;;;;3.83;3.33;;;;;;;;;;6252328;22;20043;-82
2023/06/03 11:41:58;;;;;;;3.00;2.47;;;;;;;;;;6305225;22;20464;-82
2023/06/03 11:44:24;;;;;;;4.75;2.45;;;;;;;;;;6252114;22;20011;-82
2023/06/03 11:46:54;;;;;;;2.78;1.63;;;;;;;;;;6278123;22;20015;-82
2023/06/03 11:49:23;;;;;;;3.25;2.55;;;;;;;;;;6277383;22;20018;-83
2023/06/03 11:51:51;;;;;;;4.05;3.22;;;;;;;;;;6278077;22;20003;-83
2023/06/03 11:54:20;;;;;;;5.72;4.75;;;;;;;;;;6305051;22;20113;-84
2023/06/03 11:56:46;;;;;;;5.25;2.47;;;;;;;;;;6250949;22;20509;-84
2023/06/03 11:59:13;;;;;;;4.40;3.95;;;;;;;;;;6251883;22;20030;-84
2023/06/03 12:02:00;;;;;;;4.72;3.45;;;;;;;;;;6277883;22;20385;-84
2023/06/03 12:04:26;;;;;;;5.13;3.15;;;;;;;;;;6251176;22;20018;-83
2023/06/03 12:06:52;;;;;;;3.45;3.15;;;;;;;;;;6252105;22;20007;-83
2023/06/03 12:09:32;;;;;;;3.50;2.70;;;;;;;;;;6277604;22;20090;-83
2023/06/03 12:12:05;;;;;;;3.38;2.50;;;;;;;;;;6252350;22;20011;-83
2023/06/03 12:14:32;;;;;;;5.88;2.38;;;;;;;;;;6251747;22;20094;-83
2023/06/03 12:17:15;;;;;;;4.20;2.45;;;;;;;;;;6278039;22;20106;-82
2023/06/03 12:19:42;;;;;;;6.05;2.97;;;;;;;;;;6277551;22;20016;-82
2023/06/03 12:22:08;;;;;;;3.58;2.88;;;;;;;;;;6277052;22;20007;-82
2023/06/03 12:24:34;;;;;;;3.75;3.33;;;;;;;;;;6305225;22;20011;-85
2023/06/03 12:27:10;;;;;;;5.20;4.68;;;;;;;;;;6277546;22;20146;-83
2023/06/03 12:29:40;;;;;;;7.63;6.93;;;;;;;;;;6250022;22;20018;-82
2023/06/03 12:32:07;;;;;;;6.65;6.15;;;;;;;;;;6276479;22;20013;-82
2023/06/03 12:34:34;;;;;;;6.60;4.15;;;;;;;;;;6251298;22;20407;-84
2023/06/03 12:37:00;;;;;;;6.00;4.80;;;;;;;;;;6276508;22;20084;-83
2023/06/03 12:39:39;;;;;;;7.72;4.30;;;;;;;;;;6250995;22;20018;-83
2023/06/03 12:42:06;;;;;;;7.75;5.82;;;;;;;;;;6249191;22;20007;-83
2023/06/03 12:44:41;;;;;;;9.40;3.92;;;;;;;;;;6277026;22;20039;-83
2023/06/03 12:47:07;;;;;;;9.32;6.38;;;;;;;;;;6250703;22;20458;-83
2023/06/03 12:49:34;;;;;;;5.88;5.38;;;;;;;;;;6250455;22;20137;-83
2023/06/03 12:52:13;;;;;;;5.25;4.18;;;;;;;;;;6276985;22;20486;-85
2023/06/03 12:54:40;;;;;;;9.02;8.23;;;;;;;;;;6276671;22;20080;-84
2023/06/03 12:57:08;;;;;;;8.90;8.18;;;;;;;;;;6276883;22;20525;-83
2023/06/03 12:59:34;;;;;;;5.25;4.55;;;;;;;;;;6251379;22;20069;-81
2023/06/03 13:02:00;;;;;;;6.35;5.78;;;;;;;;;;6276089;22;20075;-81
2023/06/03 13:04:26;;;;;;;8.00;6.40;;;;;;;;;;6276901;22;20019;-79
2023/06/03 13:06:52;;;;;;;9.15;8.35;;;;;;;;;;6276616;22;20107;-80
2023/06/03 13:09:18;;;;;;;10.05;9.35;;;;;;;;;;6303878;22;20537;-83
2023/06/03 13:11:44;;;;;;;9.57;8.90;;;;;;;;;;6277326;22;20065;-83
2023/06/03 13:14:11;;;;;;;8.18;7.50;;;;;;;;;;6249745;22;20427;-82
2023/06/03 13:16:37;;;;;;;11.65;10.55;;;;;;;;;;6304004;22;20011;-83
2023/06/03 13:19:03;;;;;;;12.63;9.13;;;;;;;;;;6276747;22;20041;-82
2023/06/03 13:21:29;;;;;;;11.38;10.52;;;;;;;;;;6251361;22;20441;-81
2023/06/03 13:23:55;;;;;;;11.55;10.65;;;;;;;;;;6276805;22;20018;-81
2023/06/03 13:26:23;;;;;;;8.80;6.88;;;;;;;;;;6251170;22;20093;-81
2023/06/03 13:28:49;;;;;;;5.80;4.95;;;;;;;;;;6276192;22;20011;-82
2023/06/03 13:31:15;;;;;;;11.32;10.52;;;;;;;;;;6250459;22;20035;-81
2023/06/03 13:33:41;;;;;;;9.95;9.20;;;;;;;;;;6304405;22;20019;-83
2023/06/03 13:36:07;;;;;;;10.32;9.52;;;;;;;;;;6276357;22;20011;-83
2023/06/03 13:38:33;;;;;;;15.73;14.00;;;;;;;;;;6251163;22;20061;-83
2023/06/03 13:40:59;;;;;;;15.70;14.48;;;;;;;;;;6276539;22;20072;-83
2023/06/03 13:43:25;;;;;;;16.80;15.43;;;;;;;;;;6276514;22;20020;-83
2023/06/03 13:45:51;;;;;;;19.25;17.85;;;;;;;;;;6250311;22;20011;-82
2023/06/03 13:48:17;;;;;;;16.25;15.20;;;;;;;;;;6276746;22;20062;-84
2023/06/03 13:50:43;;;;;;;11.10;10.35;;;;;;;;;;6277148;22;20400;-83
2023/06/03 13:53:09;;;;;;;11.38;10.27;;;;;;;;;;6276793;22;20461;-84
2023/06/03 13:55:35;;;;;;;12.85;11.85;;;;;;;;;;6276517;22;20406;-84
2023/06/03 13:58:01;;;;;;;12.82;11.80;;;;;;;;;;6251217;22;20018;-81
2023/06/03 14:00:27;;;;;;;10.05;9.15;;;;;;;;;;6275926;22;20015;-83
2023/06/03 14:02:53;;;;;;;10.73;9.80;;;;;;;;;;6251189;22;20020;-81
2023/06/03 14:05:20;;;;;;;10.43;5.13;;;;;;;;;;6276431;22;20342;-82
2023/06/03 14:07:46;;;;;;;5.30;2.88;;;;;;;;;;6250830;22;20084;-82
2023/06/03 14:10:12;;;;;;;13.13;5.65;;;;;;;;;;6276302;22;20026;-83
2023/06/03 14:12:38;;;;;;;4.75;1.80;;;;;;;;;;6250719;22;20012;-84
2023/06/03 14:15:05;;;;;;;3.20;1.95;;;;;;;;;;6276066;22;20015;-82
2023/06/03 14:17:31;;;;;;;3.33;1.52;;;;;;;;;;6304026;22;20015;-81
2023/06/03 14:19:57;;;;;;;4.85;2.15;;;;;;;;;;6303597;22;20007;-81
2023/06/03 14:22:23;;;;;;;3.17;1.73;;;;;;;;;;6276362;22;20089;-81
2023/06/03 14:24:49;;;;;;;4.15;2.40;;;;;;;;;;6250601;22;20039;-82
2023/06/03 14:27:15;;;;;;;4.93;3.30;;;;;;;;;;6276698;22;20086;-80
2023/06/03 14:29:41;;;;;;;3.70;2.10;;;;;;;;;;6250201;22;20090;-80
2023/06/03 14:32:07;;;;;;;7.40;2.15;;;;;;;;;;6276392;22;20449;-80
2023/06/03 14:34:34;;;;;;;4.88;1.95;;;;;;;;;;6276584;22;20022;-80